createdAt,value
2022-11-17T00:02:09.192Z,11.21
2022-11-17T00:05:10.890Z,11.19
2022-11-17T00:08:12.298Z,11.21
2022-11-17T00:11:13.976Z,11.14
2022-11-17T00:14:33.522Z,11.17
2022-11-17T00:17:34.985Z,11.23
2022-11-17T00:20:59.076Z,11.20
2022-11-17T00:24:00.597Z,11.11
2022-11-17T00:27:02.072Z,11.08
2022-11-17T00:30:04.595Z,11.04
2022-11-17T00:33:24.746Z,11.03
2022-11-17T00:36:26.400Z,11.04
2022-11-17T00:39:27.854Z,11.01
2022-11-17T00:42:29.261Z,11.06
2022-11-17T00:45:30.657Z,11.03
2022-11-17T00:48:32.095Z,10.96
2022-11-17T00:51:34.239Z,10.97
2022-11-17T00:54:35.635Z,10.86
2022-11-17T00:57:37.024Z,10.98
2022-11-17T01:00:38.419Z,10.87
2022-11-17T01:03:39.849Z,10.83
2022-11-17T01:06:46.388Z,10.85
2022-11-17T01:09:47.777Z,10.84
2022-11-17T01:12:49.173Z,10.88
2022-11-17T01:15:50.547Z,10.87
2022-11-17T01:18:53.228Z,10.87
2022-11-17T01:21:54.684Z,10.90
2022-11-17T01:24:56.060Z,10.85
2022-11-17T01:27:57.459Z,10.91
2022-11-17T01:31:05.705Z,10.90
2022-11-17T01:34:07.744Z,10.92
2022-11-17T01:37:21.388Z,11.00
2022-11-17T01:40:23.160Z,11.06
2022-11-17T01:43:43.351Z,11.04
2022-11-17T01:46:44.898Z,11.09
2022-11-17T01:49:47.536Z,11.01
2022-11-17T01:52:50.941Z,10.90
2022-11-17T01:55:57.028Z,10.92
2022-11-17T01:59:05.404Z,10.84
2022-11-17T02:02:07.406Z,10.93
2022-11-17T02:05:24.384Z,10.88
2022-11-17T02:08:29.057Z,10.99
2022-11-17T02:11:35.936Z,10.86
2022-11-17T02:14:38.968Z,10.84
2022-11-17T02:17:44.026Z,10.92
2022-11-17T02:21:10.753Z,11.01
2022-11-17T02:24:30.613Z,11.00
2022-11-17T02:28:03.324Z,11.00
2022-11-17T02:31:29.696Z,10.95
2022-11-17T02:35:02.629Z,10.95
2022-11-17T02:38:14.324Z,10.98
2022-11-17T02:41:22.911Z,10.97
2022-11-17T02:44:46.305Z,11.03
2022-11-17T02:47:50.602Z,11.06
2022-11-17T02:50:53.648Z,11.04
2022-11-17T02:53:57.534Z,11.14
2022-11-17T02:56:59.019Z,11.09
2022-11-17T03:00:06.972Z,11.07
2022-11-17T03:03:49.888Z,11.15
2022-11-17T03:07:18.498Z,11.26
2022-11-17T03:10:38.069Z,11.17
2022-11-17T03:14:11.901Z,11.10
2022-11-17T03:17:29.742Z,11.14
2022-11-17T03:20:40.595Z,10.98
2022-11-17T03:23:51.210Z,10.95
2022-11-17T03:26:57.804Z,10.99
2022-11-17T03:30:06.369Z,10.93
2022-11-17T03:33:15.195Z,10.90
2022-11-17T03:36:22.276Z,10.87
2022-11-17T03:39:35.765Z,10.94
2022-11-17T03:42:42.037Z,10.93
2022-11-17T03:45:50.827Z,11.03
2022-11-17T03:49:17.431Z,11.08
2022-11-17T03:52:19.883Z,11.08
2022-11-17T03:55:27.482Z,11.07
2022-11-17T03:58:34.737Z,11.05
2022-11-17T04:01:37.340Z,11.00
2022-11-17T04:04:57.157Z,11.05
2022-11-17T04:07:58.538Z,11.00
2022-11-17T04:11:18.672Z,11.08
2022-11-17T04:14:38.902Z,11.08
2022-11-17T04:17:40.680Z,11.04
2022-11-17T04:20:42.876Z,11.14
2022-11-17T04:23:44.389Z,11.15
2022-11-17T04:27:04.551Z,11.13
2022-11-17T04:30:06.308Z,11.10
2022-11-17T04:33:07.774Z,11.11
2022-11-17T04:36:10.902Z,11.09
2022-11-17T04:39:14.005Z,11.07
2022-11-17T04:42:15.380Z,11.06
2022-11-17T04:45:16.772Z,11.07
2022-11-17T04:48:18.159Z,10.99
2022-11-17T04:51:20.693Z,11.01
2022-11-17T04:54:24.656Z,10.97
2022-11-17T04:57:26.095Z,10.99
2022-11-17T05:00:27.493Z,10.97
2022-11-17T05:03:28.878Z,10.97
2022-11-17T05:06:37.683Z,11.03
2022-11-17T05:09:39.209Z,10.95
2022-11-17T05:12:59.183Z,10.96
2022-11-17T05:16:19.143Z,10.94
2022-11-17T05:19:23.638Z,10.85
2022-11-17T05:22:43.731Z,10.81
2022-11-17T05:25:45.111Z,10.86
2022-11-17T05:28:46.581Z,10.86
2022-11-17T05:31:48.649Z,10.85
2022-11-17T05:34:50.099Z,10.79
2022-11-17T05:37:51.561Z,10.91
2022-11-17T05:40:52.932Z,10.90
2022-11-17T05:43:55.273Z,10.95
2022-11-17T05:46:56.673Z,10.84
2022-11-17T05:49:58.073Z,10.86
2022-11-17T05:52:59.476Z,10.82
2022-11-17T05:56:09.927Z,10.84
2022-11-17T05:59:17.372Z,10.90
2022-11-17T06:02:31.962Z,10.92
2022-11-17T06:05:33.704Z,10.93
2022-11-17T06:08:36.488Z,10.89
2022-11-17T06:11:37.876Z,10.95
2022-11-17T06:14:39.727Z,11.08
2022-11-17T06:17:55.005Z,11.17
2022-11-17T06:20:56.504Z,11.24
2022-11-17T06:24:00.081Z,11.17
2022-11-17T06:27:01.625Z,11.16
2022-11-17T06:30:04.968Z,11.15
2022-11-17T06:33:09.965Z,11.18
2022-11-17T06:36:11.523Z,11.19
2022-11-17T06:39:12.963Z,11.18
2022-11-17T06:42:14.408Z,11.17
2022-11-17T06:45:15.970Z,11.21
2022-11-17T06:48:18.586Z,11.19
2022-11-17T06:51:19.977Z,11.21
2022-11-17T06:54:21.370Z,11.20
2022-11-17T06:57:22.783Z,11.26
2022-11-17T07:00:24.183Z,11.28
2022-11-17T07:03:25.628Z,11.28
2022-11-17T07:06:27.136Z,11.30
2022-11-17T07:09:28.541Z,11.34
2022-11-17T07:12:29.981Z,11.36
2022-11-17T07:15:31.715Z,11.42
2022-11-17T07:18:34.377Z,11.41
2022-11-17T07:21:36.332Z,11.44
2022-11-17T07:24:37.705Z,11.33
2022-11-17T07:27:39.121Z,11.32
2022-11-17T07:30:40.743Z,11.34
2022-11-17T07:33:42.190Z,11.28
2022-11-17T07:36:43.570Z,11.30
2022-11-17T07:39:44.952Z,11.41
2022-11-17T07:42:49.886Z,11.46
2022-11-17T07:45:53.153Z,11.52
2022-11-17T07:48:56.171Z,11.53
2022-11-17T07:51:57.713Z,11.62
2022-11-17T07:54:59.298Z,11.65
2022-11-17T07:58:01.567Z,11.67
2022-11-17T08:01:08.143Z,11.71
2022-11-17T08:04:09.945Z,11.81
2022-11-17T08:07:11.480Z,11.74
2022-11-17T08:10:13.648Z,11.72
2022-11-17T08:13:15.787Z,11.76
2022-11-17T08:16:17.593Z,11.77
2022-11-17T08:19:18.994Z,11.79
2022-11-17T08:22:20.383Z,11.88
2022-11-17T08:25:23.807Z,11.92
2022-11-17T08:28:25.229Z,11.97
2022-11-17T08:31:26.681Z,11.98
2022-11-17T08:34:28.068Z,12.09
2022-11-17T08:37:30.489Z,12.04
2022-11-17T08:40:31.900Z,12.12
2022-11-17T08:43:34.034Z,12.11
2022-11-17T08:46:35.462Z,12.10
2022-11-17T08:49:36.847Z,12.14
2022-11-17T08:52:38.280Z,12.16
2022-11-17T08:55:41.158Z,12.20
2022-11-17T08:58:44.459Z,12.29
2022-11-17T09:01:45.895Z,12.36
2022-11-17T09:04:47.687Z,12.43
2022-11-17T09:07:49.162Z,12.69
2022-11-17T09:10:51.541Z,12.89
2022-11-17T09:13:53.132Z,13.09
2022-11-17T09:16:54.576Z,13.27
2022-11-17T09:19:55.956Z,13.26
2022-11-17T09:22:59.983Z,13.27
2022-11-17T09:26:09.624Z,13.31
2022-11-17T09:29:11.526Z,13.34
2022-11-17T09:32:13.387Z,13.41
2022-11-17T09:35:14.998Z,13.55
2022-11-17T09:38:16.792Z,13.68
2022-11-17T09:41:26.385Z,13.75
2022-11-17T09:44:39.709Z,13.72
2022-11-17T09:47:45.981Z,13.65
2022-11-17T09:50:49.982Z,13.49
2022-11-17T09:53:59.300Z,13.29
2022-11-17T09:57:01.149Z,13.28
2022-11-17T10:00:22.969Z,13.13
2022-11-17T10:03:29.444Z,12.90
2022-11-17T10:06:31.788Z,12.76
2022-11-17T10:09:38.321Z,12.52
2022-11-17T10:12:48.171Z,12.33
2022-11-17T10:15:54.111Z,12.19
2022-11-17T10:18:55.687Z,12.11
2022-11-17T10:22:02.980Z,12.19
2022-11-17T10:25:04.863Z,12.16
2022-11-17T10:28:09.052Z,12.02
2022-11-17T10:31:13.741Z,12.15
2022-11-17T10:34:41.175Z,12.09
2022-11-17T10:38:01.700Z,11.98
2022-11-17T10:41:03.452Z,11.88
2022-11-17T10:44:28.592Z,11.81
2022-11-17T10:47:31.851Z,11.55
2022-11-17T10:50:33.377Z,11.62
2022-11-17T10:53:45.560Z,11.63
2022-11-17T10:56:51.489Z,11.70
2022-11-17T10:59:57.646Z,11.75
2022-11-17T11:03:33.398Z,11.85
2022-11-17T11:06:35.741Z,11.97
2022-11-17T11:09:42.697Z,12.20
2022-11-17T11:13:13.207Z,12.29
2022-11-17T11:16:14.590Z,12.31
2022-11-17T11:19:19.340Z,12.24
2022-11-17T11:22:27.700Z,12.18
2022-11-17T11:25:41.384Z,12.20
2022-11-17T11:29:03.108Z,12.28
2022-11-17T11:32:29.309Z,12.21
2022-11-17T11:35:33.445Z,12.18
2022-11-17T11:38:58.035Z,12.23
2022-11-17T11:42:23.527Z,12.39
2022-11-17T11:45:58.998Z,12.54
2022-11-17T11:49:15.928Z,12.51
2022-11-17T11:52:31.034Z,12.59
2022-11-17T11:55:36.510Z,12.72
2022-11-17T11:59:12.524Z,12.88
2022-11-17T12:02:14.400Z,12.95
2022-11-17T12:05:32.198Z,12.97
2022-11-17T12:08:47.520Z,12.83
2022-11-17T12:12:00.377Z,12.84
2022-11-17T12:15:20.156Z,12.95
2022-11-17T12:18:21.513Z,13.03
2022-11-17T12:21:24.918Z,13.09
2022-11-17T12:24:40.190Z,13.15
2022-11-17T12:27:52.311Z,13.27
2022-11-17T12:30:56.355Z,13.40
2022-11-17T12:34:00.828Z,13.40
2022-11-17T12:37:15.493Z,13.24
2022-11-17T12:40:53.855Z,13.22
2022-11-17T12:44:33.991Z,13.19
2022-11-17T12:47:41.993Z,13.20
2022-11-17T12:51:13.913Z,13.28
2022-11-17T12:54:25.970Z,13.35
2022-11-17T12:57:32.052Z,13.31
2022-11-17T13:00:45.916Z,13.36
2022-11-17T13:03:57.771Z,13.36
2022-11-17T13:07:07.478Z,13.28
2022-11-17T13:10:27.367Z,13.17
2022-11-17T13:13:29.056Z,13.09
2022-11-17T13:16:30.745Z,12.88
2022-11-17T13:19:39.535Z,12.68
2022-11-17T13:22:42.224Z,12.47
2022-11-17T13:25:43.795Z,12.43
2022-11-17T13:28:46.304Z,12.58
2022-11-17T13:31:48.020Z,12.57
2022-11-17T13:34:52.728Z,12.59
2022-11-17T13:38:19.985Z,12.62
2022-11-17T13:41:24.569Z,12.59
2022-11-17T13:44:27.749Z,12.51
2022-11-17T13:47:38.327Z,12.49
2022-11-17T13:50:40.176Z,12.54
2022-11-17T13:53:43.735Z,12.56
2022-11-17T13:56:55.090Z,12.44
2022-11-17T13:59:58.503Z,12.38
2022-11-17T14:03:03.314Z,12.22
2022-11-17T14:06:08.167Z,12.18
2022-11-17T14:09:10.156Z,12.24
2022-11-17T14:12:12.242Z,12.24
2022-11-17T14:15:25.564Z,12.21
2022-11-17T14:18:36.608Z,12.20
2022-11-17T14:22:23.531Z,12.20
2022-11-17T14:25:30.228Z,12.19
2022-11-17T14:28:31.803Z,12.26
2022-11-17T14:31:33.383Z,12.26
2022-11-17T14:34:36.722Z,12.22
2022-11-17T14:37:38.133Z,12.17
2022-11-17T14:40:39.526Z,12.09
2022-11-17T14:43:40.908Z,11.96
2022-11-17T14:46:42.566Z,11.95
2022-11-17T14:49:44.079Z,11.98
2022-11-17T14:52:45.958Z,11.97
2022-11-17T14:55:47.549Z,11.96
2022-11-17T14:58:57.931Z,11.94
2022-11-17T15:01:59.391Z,11.97
2022-11-17T15:05:01.339Z,11.93
2022-11-17T15:08:03.147Z,11.90
2022-11-17T15:11:06.201Z,11.87
2022-11-17T15:14:08.020Z,11.86
2022-11-17T15:17:13.920Z,11.85
2022-11-17T15:20:16.364Z,11.86
2022-11-17T15:23:17.749Z,11.85
2022-11-17T15:26:23.219Z,11.75
2022-11-17T15:29:24.764Z,11.79
2022-11-17T15:32:26.478Z,11.78
2022-11-17T15:35:28.110Z,11.74
2022-11-17T15:38:30.384Z,11.81
2022-11-17T15:41:33.098Z,11.66
2022-11-17T15:44:34.666Z,11.68
2022-11-17T15:47:36.119Z,11.65
2022-11-17T15:50:37.622Z,11.64
2022-11-17T15:53:39.535Z,11.49
2022-11-17T15:56:40.928Z,11.43
2022-11-17T15:59:42.615Z,11.40
2022-11-17T16:02:44.051Z,11.41
2022-11-17T16:05:45.440Z,11.54
2022-11-17T16:08:46.859Z,11.60
2022-11-17T16:11:48.359Z,11.69
2022-11-17T16:14:49.788Z,11.75
2022-11-17T16:17:51.250Z,11.60
2022-11-17T16:20:52.989Z,11.39
2022-11-17T16:23:56.749Z,11.34
2022-11-17T16:26:58.162Z,11.31
2022-11-17T16:29:59.545Z,11.42
2022-11-17T16:33:00.985Z,11.47
2022-11-17T16:36:06.245Z,11.43
2022-11-17T16:39:11.649Z,11.58
2022-11-17T16:42:13.034Z,11.57
2022-11-17T16:45:14.537Z,11.49
2022-11-17T16:48:15.979Z,11.36
2022-11-17T16:51:20.311Z,11.44
2022-11-17T16:54:22.009Z,11.33
2022-11-17T16:57:23.385Z,11.48
2022-11-17T17:00:24.777Z,11.41
2022-11-17T17:03:27.222Z,11.44
2022-11-17T17:06:28.967Z,11.45
2022-11-17T17:09:30.771Z,11.52
2022-11-17T17:12:32.373Z,11.55
2022-11-17T17:15:33.829Z,11.53
2022-11-17T17:18:36.418Z,11.50
2022-11-17T17:21:39.290Z,11.50
2022-11-17T17:24:40.678Z,11.46
2022-11-17T17:27:42.067Z,11.46
2022-11-17T17:30:43.873Z,11.49
2022-11-17T17:33:45.582Z,11.38
2022-11-17T17:36:47.028Z,11.41
2022-11-17T17:39:48.423Z,11.36
2022-11-17T17:42:49.805Z,11.36
2022-11-17T17:45:51.333Z,11.39
2022-11-17T17:48:53.034Z,11.37
2022-11-17T17:51:54.422Z,11.34
2022-11-17T17:54:55.797Z,11.37
2022-11-17T17:57:57.184Z,11.31
2022-11-17T18:01:14.188Z,11.29
2022-11-17T18:04:16.756Z,11.35
2022-11-17T18:07:18.501Z,11.39
2022-11-17T18:10:19.933Z,11.40
2022-11-17T18:13:21.319Z,11.45
2022-11-17T18:16:28.166Z,11.48
2022-11-17T18:19:32.956Z,11.49
2022-11-17T18:22:34.783Z,11.48
2022-11-17T18:25:36.191Z,11.46
2022-11-17T18:28:39.699Z,11.43
2022-11-17T18:31:41.915Z,11.41
2022-11-17T18:34:43.357Z,11.41
2022-11-17T18:37:44.740Z,11.36
2022-11-17T18:40:46.168Z,11.37
2022-11-17T18:43:48.168Z,11.43
2022-11-17T18:46:49.591Z,11.55
2022-11-17T18:49:51.027Z,11.58
2022-11-17T18:52:52.490Z,11.51
2022-11-17T18:55:59.266Z,11.52
2022-11-17T18:59:01.255Z,11.57
2022-11-17T19:02:02.661Z,11.55
2022-11-17T19:05:04.235Z,11.63
2022-11-17T19:08:05.672Z,11.62
2022-11-17T19:11:09.283Z,11.61
2022-11-17T19:14:10.725Z,11.60
2022-11-17T19:17:12.176Z,11.59
2022-11-17T19:20:13.594Z,11.60
2022-11-17T19:23:15.075Z,11.62
2022-11-17T19:26:19.167Z,11.63
2022-11-17T19:29:21.168Z,11.59
2022-11-17T19:32:22.849Z,11.46
2022-11-17T19:35:24.545Z,11.44
2022-11-17T19:38:26.001Z,11.39
2022-11-17T19:41:29.240Z,11.37
2022-11-17T19:44:30.642Z,11.34
2022-11-17T19:47:32.028Z,11.29
2022-11-17T19:50:33.661Z,11.26
2022-11-17T19:53:35.044Z,11.26
2022-11-17T19:56:36.766Z,11.29
2022-11-17T19:59:38.225Z,11.25
2022-11-17T20:02:40.027Z,11.30
2022-11-17T20:05:41.948Z,11.35
2022-11-17T20:08:43.830Z,11.38
2022-11-17T20:11:45.263Z,11.37
2022-11-17T20:14:47.263Z,11.23
2022-11-17T20:17:48.717Z,11.26
2022-11-17T20:20:50.101Z,11.25
2022-11-17T20:23:53.039Z,11.21
2022-11-17T20:26:54.491Z,11.27
2022-11-17T20:29:55.936Z,11.21
2022-11-17T20:32:57.629Z,11.23
2022-11-17T20:36:02.743Z,11.22
2022-11-17T20:39:06.687Z,11.14
2022-11-17T20:42:08.073Z,11.11
2022-11-17T20:45:09.909Z,11.02
2022-11-17T20:48:11.289Z,11.01
2022-11-17T20:51:15.090Z,10.95
2022-11-17T20:54:16.548Z,10.90
2022-11-17T20:57:18.559Z,11.01
2022-11-17T21:00:20.242Z,11.00
2022-11-17T21:03:22.971Z,11.11
2022-11-17T21:06:24.521Z,11.07
2022-11-17T21:09:26.140Z,11.14
2022-11-17T21:12:28.539Z,11.13
2022-11-17T21:15:29.949Z,11.14
2022-11-17T21:18:32.292Z,11.05
2022-11-17T21:21:34.002Z,11.05
2022-11-17T21:24:35.529Z,10.96
2022-11-17T21:27:36.915Z,10.99
2022-11-17T21:30:38.283Z,10.99
2022-11-17T21:33:40.729Z,10.94
2022-11-17T21:36:42.454Z,10.98
2022-11-17T21:39:43.865Z,11.01
2022-11-17T21:42:45.948Z,10.99
2022-11-17T21:45:47.395Z,11.02
2022-11-17T21:48:51.370Z,11.06
2022-11-17T21:51:52.771Z,11.08
2022-11-17T21:54:54.156Z,10.98
2022-11-17T21:57:56.291Z,10.97
2022-11-17T22:00:58.496Z,11.00
2022-11-17T22:04:00.399Z,10.97
2022-11-17T22:07:01.857Z,10.95
2022-11-17T22:10:03.538Z,10.91
2022-11-17T22:13:08.123Z,10.93
2022-11-17T22:16:13.999Z,10.93
2022-11-17T22:19:17.342Z,10.97
2022-11-17T22:22:18.997Z,10.96
2022-11-17T22:25:43.705Z,10.96
2022-11-17T22:28:42.350Z,10.91
2022-11-17T22:31:44.740Z,10.79
2022-11-17T22:34:46.131Z,10.68
2022-11-17T22:37:47.539Z,10.62
2022-11-17T22:40:48.947Z,10.68
2022-11-17T22:43:55.497Z,10.72
2022-11-17T22:46:56.952Z,10.70
2022-11-17T22:49:58.358Z,10.58
2022-11-17T22:53:00.811Z,10.48
2022-11-17T22:56:04.306Z,10.47
2022-11-17T22:59:05.788Z,10.45
2022-11-17T23:02:07.174Z,10.44
2022-11-17T23:05:08.750Z,10.44
2022-11-17T23:08:10.337Z,10.51
2022-11-17T23:14:33.244Z,10.49
2022-11-17T23:17:34.865Z,10.52
2022-11-17T23:20:36.648Z,10.53
2022-11-17T23:23:40.278Z,10.53
2022-11-17T23:26:42.526Z,10.56
2022-11-17T23:29:43.912Z,10.55
2022-11-17T23:32:45.302Z,10.56
2022-11-17T23:35:46.698Z,10.51
2022-11-17T23:38:49.293Z,10.45
2022-11-17T23:41:50.712Z,10.48
2022-11-17T23:44:52.160Z,10.48
2022-11-17T23:47:53.584Z,10.42
2022-11-17T23:50:55.083Z,10.44
2022-11-17T23:54:01.097Z,10.44
2022-11-17T23:57:02.685Z,10.39
